Time;durP1;ratioP1;P1;durP2;ratioP2;P2;SDS_P1;SDS_P2;PMS_P1;PMS_P2;Temp;Humidity;BMP_temperature;BMP_pressure;BME280_temperature;BME280_humidity;BME280_pressure;Samples;Min_cycle;Max_cycle;Signal;HPM_P1;HPM_P2
2023/03/06 00:01:29;;;;;;;30.90;18.00;;;2.80;99.90;;;1.59;100.00;96569.31;4915248;29;20447;-75
2023/03/06 00:03:55;;;;;;;30.42;17.45;;;2.90;99.90;;;1.59;100.00;96568.50;4915544;29;20489;-75
2023/03/06 00:06:22;;;;;;;29.92;18.00;;;2.80;99.90;;;1.60;100.00;96570.09;4914189;29;20779;-75
2023/03/06 00:08:48;;;;;;;35.55;19.33;;;2.80;99.90;;;1.59;100.00;96566.69;4913994;29;20741;-75
2023/03/06 00:11:14;;;;;;;31.45;18.33;;;2.80;99.90;;;1.58;100.00;96564.34;4915228;29;20425;-75
2023/03/06 00:13:40;;;;;;;35.83;19.45;;;2.80;99.90;;;1.64;100.00;96566.88;4915070;29;20409;-75
2023/03/06 00:16:06;;;;;;;35.53;18.90;;;2.90;99.90;;;1.59;100.00;96563.28;4915267;29;20851;-75
2023/03/06 00:18:33;;;;;;;35.92;19.52;;;2.80;99.90;;;1.57;100.00;96568.75;4915092;29;20887;-75
2023/03/06 00:20:59;;;;;;;38.45;19.92;;;2.80;99.90;;;1.54;100.00;96564.75;4915119;29;20401;-75
2023/03/06 00:23:26;;;;;;;33.50;19.03;;;2.80;99.90;;;1.55;100.00;96558.53;4914845;29;20444;-75
2023/03/06 00:25:52;;;;;;;39.10;19.70;;;2.80;99.90;;;1.53;100.00;96546.69;4915015;29;20525;-75
2023/03/06 00:28:18;;;;;;;30.52;17.58;;;2.80;99.90;;;1.57;100.00;96552.28;4914905;29;20429;-74
2023/03/06 00:30:47;;;;;;;31.07;18.17;;;2.80;99.90;;;1.54;100.00;96543.88;4914905;29;21002;-74
2023/03/06 00:33:13;;;;;;;30.55;17.58;;;2.80;99.90;;;1.55;100.00;96540.25;4914649;29;20466;-74
2023/03/06 00:35:40;;;;;;;33.92;18.77;;;2.80;99.90;;;1.54;100.00;96543.09;4915064;29;20896;-74
2023/03/06 00:38:06;;;;;;;31.58;18.30;;;2.80;99.90;;;1.55;100.00;96537.66;4914581;29;20895;-74
2023/03/06 00:40:33;;;;;;;30.52;17.25;;;2.80;99.90;;;1.52;100.00;96539.88;4914731;29;20440;-74
2023/03/06 00:42:59;;;;;;;30.55;17.80;;;2.80;99.90;;;1.54;100.00;96538.66;4914605;29;20414;-74
2023/03/06 00:45:25;;;;;;;31.97;17.97;;;2.80;99.90;;;1.52;100.00;96534.66;4914899;29;20783;-74
2023/03/06 00:47:51;;;;;;;30.40;17.98;;;2.80;99.90;;;1.49;100.00;96529.91;4914421;29;20890;-74
2023/03/06 00:50:17;;;;;;;33.30;18.42;;;2.70;99.90;;;1.49;100.00;96529.91;4914597;29;20417;-74
2023/03/06 00:52:43;;;;;;;32.00;17.27;;;2.70;99.90;;;1.50;100.00;96531.50;4932234;29;20842;-74
2023/03/06 00:55:10;;;;;;;28.95;16.98;;;2.70;99.90;;;1.48;100.00;96526.50;4932244;29;20415;-74
2023/03/06 00:57:37;;;;;;;34.03;18.38;;;2.70;99.90;;;1.46;100.00;96530.31;4933378;29;20471;-74
2023/03/06 01:00:05;;;;;;;28.52;16.20;;;2.70;99.90;;;1.47;100.00;96529.31;4933350;29;20885;-74
2023/03/06 01:02:32;;;;;;;31.65;17.75;;;2.70;99.90;;;1.43;100.00;96522.91;4933065;29;20414;-74
2023/03/06 01:04:57;;;;;;;42.40;21.05;;;2.70;99.90;;;1.39;100.00;96522.56;4933336;29;20416;-74
2023/03/06 01:07:26;;;;;;;31.10;16.95;;;2.60;99.90;;;1.39;100.00;96514.72;4933116;29;20422;-74
2023/03/06 01:09:52;;;;;;;32.88;18.73;;;2.60;99.90;;;1.37;100.00;96513.34;4932780;29;20842;-74
2023/03/06 01:12:18;;;;;;;30.98;17.52;;;2.60;99.90;;;1.33;100.00;96507.78;4933167;29;20620;-75
2023/03/06 01:14:45;;;;;;;31.10;17.95;;;2.60;99.90;;;1.35;100.00;96502.34;4933179;29;20518;-74
2023/03/06 01:17:11;;;;;;;33.42;19.02;;;2.60;99.90;;;1.33;100.00;96501.75;4933048;29;20464;-75
2023/03/06 01:19:37;;;;;;;30.15;17.90;;;2.60;99.90;;;1.31;100.00;96506.38;4933127;29;20403;-74
2023/03/06 01:22:03;;;;;;;35.08;19.38;;;2.60;99.90;;;1.27;100.00;96506.03;4932814;29;20927;-74
2023/03/06 01:24:29;;;;;;;36.28;18.08;;;2.50;99.90;;;1.24;100.00;96498.63;4933003;29;20758;-74
2023/03/06 01:26:54;;;;;;;35.90;19.40;;;2.50;99.90;;;1.23;100.00;96499.63;4932992;29;20485;-74
2023/03/06 01:29:20;;;;;;;37.22;19.52;;;2.50;99.90;;;1.25;100.00;96495.00;4932902;29;20431;-74
2023/03/06 01:31:47;;;;;;;42.80;21.75;;;2.50;99.90;;;1.33;100.00;96499.94;4932559;29;20431;-74
2023/03/06 01:34:13;;;;;;;39.88;21.05;;;2.60;99.90;;;1.36;100.00;96496.09;4933047;29;20806;-74
2023/03/06 01:36:39;;;;;;;40.13;21.48;;;2.60;99.90;;;1.36;100.00;96498.69;4932949;29;20877;-74
2023/03/06 01:39:05;;;;;;;37.22;19.50;;;2.60;99.90;;;1.35;100.00;96494.53;4932762;29;20423;-74
2023/03/06 01:41:31;;;;;;;37.08;20.17;;;2.60;99.90;;;1.35;100.00;96489.31;4932801;29;20635;-74
2023/03/06 01:43:57;;;;;;;34.42;18.73;;;2.60;99.90;;;1.34;100.00;96493.72;4932867;29;20407;-74
2023/03/06 01:46:41;;;;;;;32.90;18.95;;;2.60;99.90;;;1.32;100.00;96493.13;4932833;29;20411;-74
2023/03/06 01:49:15;;;;;;;43.28;22.17;;;2.60;99.90;;;1.27;100.00;96481.75;4932610;29;20428;-74
2023/03/06 01:51:47;;;;;;;36.65;20.77;;;2.50;99.90;;;1.26;100.00;96480.97;4931234;28;20415;-75
2023/03/06 01:54:20;;;;;;;35.85;18.90;;;2.50;99.90;;;1.20;100.00;96476.63;4932685;29;20415;-74
2023/03/06 01:56:50;;;;;;;38.10;19.67;;;2.50;99.90;;;1.23;100.00;96477.97;4932786;29;20407;-75
2023/03/06 01:59:16;;;;;;;37.33;20.20;;;2.50;99.90;;;1.24;100.00;96472.56;4932660;29;20498;-74
2023/03/06 02:01:43;;;;;;;31.55;18.10;;;2.50;99.90;;;1.25;100.00;96468.13;4932553;29;20503;-75
2023/03/06 02:04:10;;;;;;;31.35;18.38;;;2.50;99.90;;;1.24;100.00;96464.72;4932787;29;20882;-74
2023/03/06 02:06:41;;;;;;;33.33;18.73;;;2.50;99.90;;;1.24;100.00;96456.91;4932778;29;20471;-74
2023/03/06 02:09:09;;;;;;;39.60;20.27;;;2.50;99.90;;;1.17;100.00;96454.38;4932408;29;20432;-74
2023/03/06 02:11:35;;;;;;;33.03;18.65;;;2.40;99.90;;;1.20;100.00;96445.34;4932440;29;20490;-75
2023/03/06 02:14:01;;;;;;;36.42;19.33;;;2.40;99.90;;;1.22;100.00;96450.31;4932779;29;20498;-74
2023/03/06 02:16:31;;;;;;;33.83;19.15;;;2.50;99.90;;;1.24;100.00;96448.28;4932666;29;20411;-75
2023/03/06 02:18:59;;;;;;;44.75;21.67;;;2.50;99.90;;;1.20;100.00;96434.91;4932476;29;20877;-74
2023/03/06 02:21:33;;;;;;;35.33;18.83;;;2.50;99.90;;;1.15;100.00;96432.94;4935332;29;20463;-74
2023/03/06 02:24:12;;;;;;;31.07;18.20;;;2.40;99.90;;;1.13;100.00;96434.16;4936194;29;20407;-74
2023/03/06 02:26:41;;;;;;;36.90;19.75;;;2.40;99.90;;;1.11;100.00;96436.19;4936248;29;20407;-74
2023/03/06 02:29:08;;;;;;;37.53;20.80;;;2.40;99.90;;;1.11;100.00;96430.97;4935959;29;20431;-75
2023/03/06 02:31:34;;;;;;;33.67;19.02;;;2.40;99.90;;;1.06;100.00;96423.78;4935819;29;20407;-74
2023/03/06 02:34:27;;;;;;;29.90;18.55;;;2.30;99.90;;;1.07;100.00;96417.56;4936288;29;20404;-74
2023/03/06 02:36:57;;;;;;;37.75;19.40;;;2.30;99.90;;;1.04;100.00;96409.41;4935727;29;20984;-74
2023/03/06 02:39:31;;;;;;;30.42;17.23;;;2.30;99.90;;;1.06;100.00;96415.97;4935927;29;20408;-74
2023/03/06 02:41:58;;;;;;;36.17;19.70;;;2.30;99.90;;;1.06;100.00;96415.97;4935732;29;20430;-74
2023/03/06 02:44:26;;;;;;;33.00;18.67;;;2.40;99.90;;;1.08;100.00;96413.94;4935877;29;20419;-74
2023/03/06 02:46:52;;;;;;;35.70;19.92;;;2.40;99.90;;;1.07;100.00;96407.16;4935925;29;20783;-73
2023/03/06 02:49:18;;;;;;;34.50;19.55;;;2.40;99.90;;;1.04;100.00;96405.00;4935963;29;20518;-76
2023/03/06 02:51:44;;;;;;;37.63;19.77;;;2.30;99.90;;;1.05;100.00;96408.38;4935620;29;20455;-76
2023/03/06 02:54:10;;;;;;;34.33;19.60;;;2.40;99.90;;;0.99;100.00;96411.81;4935748;29;20443;-73
2023/03/06 02:56:36;;;;;;;32.08;19.05;;;2.30;99.90;;;0.94;100.00;96402.06;4935789;29;20415;-75
2023/03/06 02:59:03;;;;;;;29.88;18.67;;;2.20;99.90;;;0.87;100.00;96396.13;4935654;29;20412;-75
2023/03/06 03:01:29;;;;;;;31.95;18.25;;;2.20;99.90;;;0.89;100.00;96401.91;4930500;29;20479;-75
2023/03/06 03:03:55;;;;;;;33.45;19.40;;;2.10;99.90;;;0.90;100.00;96395.69;4916348;29;20939;-75
2023/03/06 03:06:21;;;;;;;34.33;18.83;;;2.20;99.90;;;0.90;100.00;96400.09;4916330;29;20504;-75
2023/03/06 03:08:47;;;;;;;31.33;18.40;;;2.20;99.90;;;0.89;100.00;96398.50;4936194;23;20439;-75
2023/03/06 03:11:13;;;;;;;35.97;20.38;;;2.20;99.90;;;0.88;100.00;96399.53;4935319;29;20419;-76
2023/03/06 03:13:38;;;;;;;36.33;19.05;;;2.20;99.90;;;0.85;100.00;96400.72;4934955;29;20418;-75
2023/03/06 03:16:09;;;;;;;34.22;19.25;;;2.10;99.90;;;0.83;100.00;96401.97;4935317;29;20423;-75
2023/03/06 03:18:35;;;;;;;32.72;18.45;;;2.10;99.90;;;0.82;100.00;96398.56;4928589;29;20420;-75
2023/03/06 03:21:06;;;;;;;33.83;18.95;;;2.10;99.90;;;0.83;100.00;96392.31;4916111;29;20417;-75
2023/03/06 03:23:32;;;;;;;33.13;19.02;;;2.10;99.90;;;0.88;100.00;96395.09;4916247;29;20456;-75
2023/03/06 03:26:07;;;;;;;36.28;20.20;;;2.10;99.90;;;0.91;100.00;96389.44;4916488;29;20922;-75
2023/03/06 03:28:33;;;;;;;36.22;19.85;;;2.20;99.90;;;0.91;100.00;96383.44;4916218;29;20425;-75
2023/03/06 03:31:03;;;;;;;33.67;19.33;;;2.20;99.90;;;0.94;100.00;96394.25;4916274;29;20409;-75
2023/03/06 03:33:30;;;;;;;34.63;18.88;;;2.20;99.90;;;0.95;100.00;96387.22;4915687;29;20417;-76
2023/03/06 03:35:57;;;;;;;35.80;20.80;;;2.20;99.90;;;0.91;100.00;96386.84;4916208;29;20891;-77
2023/03/06 03:38:23;;;;;;;29.38;18.08;;;2.20;99.90;;;0.92;100.00;96385.03;4915946;29;20761;-76
2023/03/06 03:40:48;;;;;;;33.33;18.95;;;2.20;99.90;;;0.89;100.00;96385.50;4916105;29;20441;-76
2023/03/06 03:43:14;;;;;;;31.85;18.85;;;2.10;99.90;;;0.87;100.00;96390.91;4915786;29;20413;-76
2023/03/06 03:45:40;;;;;;;33.47;18.95;;;2.20;99.90;;;0.86;100.00;96384.09;4916061;29;20501;-76
2023/03/06 03:48:06;;;;;;;28.43;17.80;;;2.10;99.90;;;0.83;100.00;96375.94;4915835;29;20457;-75
2023/03/06 03:50:33;;;;;;;35.58;18.80;;;2.10;99.90;;;0.76;100.00;96375.97;4915992;29;20441;-76
2023/03/06 03:52:59;;;;;;;30.35;17.58;;;2.00;99.90;;;0.78;100.00;96373.94;4915590;29;20446;-76
2023/03/06 03:55:25;;;;;;;35.35;19.70;;;2.10;99.90;;;0.85;100.00;96374.69;4914576;29;20508;-76
2023/03/06 03:57:52;;;;;;;35.30;18.95;;;2.10;99.90;;;0.89;100.00;96382.88;4915733;29;20413;-76
2023/03/06 04:00:18;;;;;;;37.53;20.02;;;2.10;99.90;;;0.92;100.00;96378.03;4915802;29;20763;-76
2023/03/06 04:02:45;;;;;;;32.47;18.40;;;2.20;99.90;;;0.94;100.00;96367.41;4914156;29;21011;-76
2023/03/06 04:05:13;;;;;;;30.30;17.27;;;2.20;99.90;;;0.96;100.00;96363.56;4915663;29;20500;-76
2023/03/06 04:07:41;;;;;;;33.55;19.95;;;2.20;99.90;;;0.96;100.00;96368.78;4915605;29;20413;-76
2023/03/06 04:10:09;;;;;;;32.78;18.88;;;2.20;99.90;;;0.95;100.00;96364.56;4915365;29;20432;-76
2023/03/06 04:12:36;;;;;;;33.35;19.70;;;2.20;99.90;;;0.93;100.00;96368.41;4915303;29;20416;-76
2023/03/06 04:15:02;;;;;;;33.60;18.88;;;2.20;99.90;;;0.91;100.00;96355.59;4914209;29;20417;-76
2023/03/06 04:17:28;;;;;;;29.48;17.35;;;2.20;99.90;;;0.90;100.00;96359.22;4915289;29;20422;-77
2023/03/06 04:19:54;;;;;;;31.60;18.23;;;2.20;99.90;;;0.85;100.00;96360.88;4915249;29;20440;-76
2023/03/06 04:22:20;;;;;;;32.57;18.07;;;2.10;99.90;;;0.85;100.00;96355.66;4914998;29;20836;-77
2023/03/06 04:24:48;;;;;;;32.75;18.85;;;2.10;99.90;;;0.85;100.00;96360.88;4915311;29;20417;-77
2023/03/06 04:27:14;;;;;;;32.90;19.45;;;2.10;99.90;;;0.84;100.00;96357.47;4915229;29;20488;-76
2023/03/06 04:29:40;;;;;;;32.33;18.85;;;2.10;99.90;;;0.86;100.00;96360.66;4915016;29;20437;-77
2023/03/06 04:32:06;;;;;;;33.40;19.40;;;2.10;99.90;;;0.83;100.00;96358.47;4914901;29;20444;-76
2023/03/06 04:34:32;;;;;;;29.33;17.52;;;2.10;99.90;;;0.87;100.00;96354.44;4913814;29;20791;-76
2023/03/06 04:36:58;;;;;;;35.13;19.27;;;2.10;99.90;;;0.88;100.00;96339.59;4913844;29;20431;-77
2023/03/06 04:39:24;;;;;;;30.27;18.25;;;2.20;99.90;;;0.89;100.00;96328.97;4915056;29;20441;-76
2023/03/06 04:41:51;;;;;;;31.63;19.53;;;2.20;99.90;;;0.86;100.00;96341.63;4914611;29;20994;-76
2023/03/06 04:44:17;;;;;;;34.53;19.95;;;2.20;99.90;;;0.93;100.00;96334.53;4914140;29;20472;-76
2023/03/06 04:46:46;;;;;;;35.60;20.67;;;2.20;99.90;;;1.02;100.00;96336.66;4912581;29;20466;-76
2023/03/06 04:49:12;;;;;;;32.05;18.95;;;2.30;99.90;;;1.00;100.00;96335.25;4908702;29;20463;-76
2023/03/06 04:51:38;;;;;;;35.28;19.88;;;2.30;99.90;;;1.00;100.00;96337.88;4904314;29;20417;-77
2023/03/06 04:54:04;;;;;;;37.03;19.10;;;2.30;99.90;;;0.95;100.00;96340.34;4912766;29;20448;-77
2023/03/06 04:56:30;;;;;;;32.37;18.70;;;2.20;99.90;;;0.93;100.00;96335.34;4917097;29;20428;-77
2023/03/06 04:58:57;;;;;;;29.80;17.88;;;2.20;99.90;;;0.94;100.00;96334.31;4908049;29;20952;-77
2023/03/06 05:01:23;;;;;;;27.20;16.85;;;2.20;99.90;;;0.94;100.00;96342.13;4915487;29;20433;-77
2023/03/06 05:03:49;;;;;;;29.00;17.45;;;2.20;99.90;;;0.89;100.00;96333.38;4913299;29;20756;-75
2023/03/06 05:06:15;;;;;;;29.00;17.53;;;2.10;99.90;;;0.84;100.00;96328.00;4914476;29;20496;-75
2023/03/06 05:08:41;;;;;;;24.33;15.90;;;2.10;99.90;;;0.85;100.00;96332.22;4914217;29;20461;-76
2023/03/06 05:11:07;;;;;;;29.20;17.15;;;2.10;99.90;;;0.82;100.00;96330.84;4914531;29;20413;-75
2023/03/06 05:13:33;;;;;;;27.58;16.23;;;2.10;99.90;;;0.78;100.00;96334.88;4914280;29;20417;-76
2023/03/06 05:16:03;;;;;;;25.40;16.10;;;2.00;99.90;;;0.89;100.00;96336.78;4914630;29;20899;-76
2023/03/06 05:18:29;;;;;;;26.48;17.52;;;2.10;99.90;;;0.93;100.00;96330.13;4914371;29;20409;-75
2023/03/06 05:20:58;;;;;;;27.60;16.98;;;2.20;99.90;;;0.92;100.00;96325.91;4914375;29;20417;-75
2023/03/06 05:23:24;;;;;;;29.23;17.50;;;2.20;99.90;;;0.88;100.00;96324.78;4914542;29;20409;-77
2023/03/06 05:25:50;;;;;;;26.80;16.80;;;2.10;99.90;;;0.85;100.00;96332.22;4905320;29;20445;-76
2023/03/06 05:28:16;;;;;;;29.95;16.70;;;2.10;99.90;;;0.84;100.00;96328.00;4907889;29;20430;-77
2023/03/06 05:30:42;;;;;;;31.42;17.65;;;2.10;99.90;;;0.86;100.00;96328.59;4909395;29;20452;-77
2023/03/06 05:33:09;;;;;;;25.60;16.20;;;2.10;99.90;;;0.87;100.00;96335.41;4904399;29;20530;-77
2023/03/06 05:35:35;;;;;;;31.83;18.65;;;2.20;99.90;;;0.85;100.00;96325.19;4902006;29;20421;-77
2023/03/06 05:38:01;;;;;;;29.80;17.65;;;2.10;99.90;;;0.87;100.00;96319.78;4903209;29;20420;-78
2023/03/06 05:40:27;;;;;;;25.67;16.10;;;2.10;99.90;;;0.83;100.00;96311.56;4905922;29;20420;-77
2023/03/06 05:42:53;;;;;;;26.88;16.50;;;2.10;99.90;;;0.79;100.00;96310.44;4907428;29;20420;-77
2023/03/06 05:45:19;;;;;;;26.60;15.85;;;2.10;99.90;;;0.83;100.00;96314.19;4905441;29;20922;-77
2023/03/06 05:47:45;;;;;;;31.02;17.08;;;2.10;99.90;;;0.81;100.00;96318.84;4903380;29;20422;-77
2023/03/06 05:50:13;;;;;;;26.23;16.25;;;2.10;99.90;;;0.82;100.00;96317.03;4904266;29;20425;-77
2023/03/06 05:52:39;;;;;;;24.33;15.38;;;2.10;99.90;;;0.79;100.00;96315.63;4903590;29;20898;-77
2023/03/06 05:55:08;;;;;;;24.60;14.85;;;2.10;99.90;;;0.80;100.00;96319.03;4904700;29;21086;-77
2023/03/06 05:57:34;;;;;;;28.70;18.27;;;2.10;99.90;;;0.83;100.00;96319.38;4906562;29;20463;-77
2023/03/06 06:00:00;;;;;;;28.67;17.20;;;2.10;99.90;;;0.82;100.00;96317.03;4908945;29;20417;-77
2023/03/06 06:02:26;;;;;;;32.42;18.20;;;2.10;99.90;;;0.82;100.00;96317.03;4907090;29;20909;-80
2023/03/06 06:04:52;;;;;;;26.92;16.80;;;2.10;99.90;;;0.85;100.00;96319.19;4908187;29;20414;-78
2023/03/06 06:07:19;;;;;;;28.47;17.20;;;2.10;99.90;;;0.83;100.00;96322.00;4909110;29;20502;-77
2023/03/06 06:09:45;;;;;;;32.40;18.42;;;2.10;99.90;;;0.83;100.00;96321.22;4908659;29;20461;-77
2023/03/06 06:12:12;;;;;;;30.65;17.58;;;2.10;99.90;;;0.81;100.00;96325.84;4916414;29;20422;-77
2023/03/06 06:14:38;;;;;;;35.78;18.67;;;2.10;99.90;;;0.83;100.00;96321.22;4916175;29;20498;-77
2023/03/06 06:17:04;;;;;;;26.13;15.88;;;2.10;99.90;;;0.83;100.00;96318.63;4914598;29;20405;-77
2023/03/06 06:19:31;;;;;;;28.77;16.77;;;2.10;99.90;;;0.77;100.00;96325.47;4912704;29;20492;-76
2023/03/06 06:21:57;;;;;;;28.70;17.43;;;2.00;99.90;;;0.79;100.00;96323.44;4908908;29;20478;-78
2023/03/06 06:24:25;;;;;;;28.83;16.63;;;2.10;99.90;;;0.74;100.00;96325.91;4907140;29;20921;-78
2023/03/06 06:26:53;;;;;;;29.98;17.05;;;2.00;99.90;;;0.72;100.00;96323.53;4909325;29;20505;-77
2023/03/06 06:29:20;;;;;;;26.67;16.70;;;2.00;99.90;;;0.71;100.00;96329.75;4906044;29;20440;-77
2023/03/06 06:31:46;;;;;;;29.80;16.53;;;2.00;99.90;;;0.73;100.00;96332.13;4899450;29;20995;-77
2023/03/06 06:34:14;;;;;;;27.35;16.35;;;2.00;99.90;;;0.74;100.00;96325.91;4896822;29;21206;-77
2023/03/06 06:36:40;;;;;;;28.80;17.75;;;2.00;99.90;;;0.78;100.00;96325.25;4895821;29;20784;-77
2023/03/06 06:39:08;;;;;;;31.17;17.35;;;2.00;99.90;;;0.78;100.00;96327.06;4898601;29;20493;-77
2023/03/06 06:41:35;;;;;;;29.48;17.85;;;2.10;99.90;;;0.80;100.00;96316.44;4917087;29;20444;-77
2023/03/06 06:44:06;;;;;;;29.95;17.20;;;2.10;99.90;;;0.84;100.00;96325.41;4917250;29;20448;-77
2023/03/06 06:46:32;;;;;;;32.53;18.70;;;2.10;99.90;;;0.83;100.00;96337.63;4917130;29;20420;-77
2023/03/06 06:49:01;;;;;;;27.95;16.83;;;2.10;99.90;;;0.85;100.00;96327.78;4916898;29;20429;-77
2023/03/06 06:51:29;;;;;;;32.70;17.08;;;2.10;99.90;;;0.86;100.00;96329.41;4916796;29;20441;-76
2023/03/06 06:53:55;;;;;;;26.75;16.00;;;2.10;99.90;;;0.90;100.00;96325.38;4917116;29;20456;-76
2023/03/06 06:56:21;;;;;;;26.95;15.85;;;2.20;99.90;;;0.99;100.00;96325.84;4917158;29;20413;-77
2023/03/06 06:58:51;;;;;;;28.65;17.05;;;2.20;99.90;;;1.02;100.00;96331.44;4916761;29;20533;-77
2023/03/06 07:01:16;;;;;;;28.02;16.60;;;2.30;99.90;;;1.03;100.00;96324.41;4916856;29;20795;-77
2023/03/06 07:03:42;;;;;;;31.77;17.27;;;2.30;99.90;;;1.07;100.00;96333.38;4916775;29;20504;-76
2023/03/06 07:06:09;;;;;;;24.38;15.30;;;2.30;99.90;;;1.11;100.00;96335.34;4916260;29;20415;-77
2023/03/06 07:08:35;;;;;;;27.15;17.23;;;2.40;99.90;;;1.13;100.00;96329.91;4916372;29;20421;-77
2023/03/06 07:11:06;;;;;;;29.25;16.38;;;2.30;99.90;;;1.14;100.00;96332.28;4916845;29;20413;-76
2023/03/06 07:13:32;;;;;;;27.88;17.25;;;2.40;99.90;;;1.13;100.00;96335.91;4916717;29;20441;-76
2023/03/06 07:16:00;;;;;;;32.85;17.83;;;2.40;99.90;;;1.12;100.00;96342.16;4916687;29;20445;-77
2023/03/06 07:18:26;;;;;;;30.55;16.95;;;2.40;99.90;;;1.17;100.00;96336.28;4916568;29;20411;-77
2023/03/06 07:20:52;;;;;;;27.42;16.30;;;2.40;99.90;;;1.17;100.00;96341.50;4916613;29;20413;-77
2023/03/06 07:23:18;;;;;;;28.63;16.45;;;2.40;99.90;;;1.15;100.00;96343.53;4916246;29;20409;-77
2023/03/06 07:25:44;;;;;;;31.45;17.05;;;2.40;99.90;;;1.25;100.00;96350.84;4916421;29;20416;-77
2023/03/06 07:28:10;;;;;;;29.15;16.27;;;2.50;99.90;;;1.29;100.00;96349.38;4916293;29;20795;-77
2023/03/06 07:30:38;;;;;;;29.92;16.73;;;2.50;99.90;;;1.35;100.00;96351.13;4916313;29;20429;-77
2023/03/06 07:33:06;;;;;;;27.70;15.95;;;2.50;99.90;;;1.33;100.00;96347.94;4915992;29;20494;-77
2023/03/06 07:35:32;;;;;;;24.08;15.77;;;2.60;99.90;;;1.39;100.00;96347.06;4916349;29;20425;-77
2023/03/06 07:37:58;;;;;;;23.73;15.33;;;2.60;99.90;;;1.42;100.00;96350.03;4916195;29;20409;-77
2023/03/06 07:40:25;;;;;;;26.15;14.85;;;2.60;99.90;;;1.51;100.00;96351.31;4916268;29;20787;-76
2023/03/06 07:42:54;;;;;;;24.23;15.52;;;2.70;99.90;;;1.55;100.00;96354.31;4915927;29;20428;-77
2023/03/06 07:45:20;;;;;;;25.20;16.02;;;2.80;99.90;;;1.59;100.00;96352.84;4916099;29;20412;-77
2023/03/06 07:47:48;;;;;;;22.98;14.63;;;2.80;99.90;;;1.66;100.00;96356.16;4915823;29;20432;-77
2023/03/06 07:50:15;;;;;;;24.88;15.13;;;2.90;99.90;;;1.77;100.00;96357.22;4916011;29;20432;-77
2023/03/06 07:52:41;;;;;;;28.95;16.67;;;3.00;99.90;;;1.90;100.00;96364.88;4915763;29;20516;-76
2023/03/06 07:55:09;;;;;;;26.08;15.15;;;3.00;99.90;;;1.92;100.00;96365.47;4915928;29;20863;-77
2023/03/06 07:57:35;;;;;;;26.47;16.47;;;3.10;99.90;;;2.10;100.00;96362.81;4915962;29;20440;-77
2023/03/06 08:00:01;;;;;;;25.95;15.77;;;3.20;99.90;;;2.16;100.00;96363.72;4915872;29;20488;-77
2023/03/06 08:02:27;;;;;;;22.38;14.95;;;3.30;99.90;;;2.12;100.00;96359.97;4915534;29;20444;-77
2023/03/06 08:04:53;;;;;;;24.55;16.13;;;3.30;99.90;;;2.30;100.00;96362.53;4915948;29;20448;-77
2023/03/06 08:07:21;;;;;;;24.05;15.57;;;3.40;99.90;;;2.20;100.00;96364.88;4914688;29;20433;-77
2023/03/06 08:09:48;;;;;;;21.48;13.68;;;3.40;99.90;;;2.29;100.00;96364.34;4914213;29;20433;-77
2023/03/06 08:12:14;;;;;;;24.50;15.48;;;3.50;99.90;;;2.28;100.00;96359.31;4915413;29;20421;-77
2023/03/06 08:14:40;;;;;;;23.92;14.85;;;3.40;99.90;;;2.41;100.00;96359.13;4915655;29;20449;-77
2023/03/06 08:17:05;;;;;;;22.13;14.02;;;3.60;99.90;;;2.52;100.00;96358.34;4915479;29;20417;-77
2023/03/06 08:19:31;;;;;;;21.40;13.87;;;3.70;99.90;;;2.65;100.00;96357.34;4915224;29;20424;-77
2023/03/06 08:21:58;;;;;;;21.60;14.05;;;3.80;99.90;;;2.54;100.00;96361.56;4915210;29;20411;-77
2023/03/06 08:24:25;;;;;;;22.13;14.43;;;3.80;99.90;;;2.47;100.00;96366.09;4915414;29;20772;-77
2023/03/06 08:26:51;;;;;;;21.15;13.48;;;3.60;99.90;;;2.66;100.00;96356.31;4915377;29;20417;-77
2023/03/06 08:29:17;;;;;;;23.10;13.03;;;3.80;99.90;;;2.67;100.00;96358.72;4914064;29;20468;-77
2023/03/06 08:31:45;;;;;;;19.65;12.75;;;3.80;99.90;;;2.97;100.00;96355.19;4915137;29;20449;-77
2023/03/06 08:34:13;;;;;;;20.17;13.25;;;4.00;99.90;;;2.92;100.00;96358.50;4915168;29;20413;-77
2023/03/06 08:36:39;;;;;;;19.25;12.18;;;4.10;99.90;;;2.95;100.00;96359.84;4915166;29;20417;-77
2023/03/06 08:39:06;;;;;;;16.88;11.73;;;4.10;99.90;;;3.05;100.00;96358.28;4915153;29;20424;-77
2023/03/06 08:41:35;;;;;;;19.00;12.43;;;4.20;99.90;;;3.31;100.00;96358.78;4914940;29;20428;-77
2023/03/06 08:44:02;;;;;;;15.18;10.70;;;4.30;99.90;;;3.25;100.00;96357.09;4915107;29;20803;-77
2023/03/06 08:46:29;;;;;;;15.27;10.82;;;4.40;99.90;;;3.38;100.00;96359.50;4906057;29;20881;-78
2023/03/06 08:48:55;;;;;;;16.85;11.38;;;4.40;99.90;;;3.59;100.00;96371.16;4918649;29;20425;-77
2023/03/06 08:51:22;;;;;;;21.00;11.48;;;4.60;99.90;;;3.58;100.00;96359.88;4908603;29;20417;-77
2023/03/06 08:53:49;;;;;;;18.88;11.70;;;4.70;99.90;;;3.60;100.00;96368.31;4909333;29;20953;-78
2023/03/06 08:56:17;;;;;;;22.63;11.93;;;4.70;99.90;;;3.78;100.00;96368.13;4912720;29;20768;-77
2023/03/06 08:58:45;;;;;;;21.05;12.30;;;4.90;99.90;;;3.83;100.00;96375.31;4913243;29;20447;-77
2023/03/06 09:01:14;;;;;;;19.48;12.20;;;4.90;99.90;;;3.80;100.00;96370.50;4912825;29;20420;-77
2023/03/06 09:03:39;;;;;;;13.95;10.43;;;4.90;99.90;;;3.72;100.00;96363.81;4908480;29;20405;-78
2023/03/06 09:06:05;;;;;;;16.10;11.07;;;4.80;99.90;;;3.65;100.00;96372.84;4910247;29;20936;-76
2023/03/06 09:08:31;;;;;;;17.95;10.93;;;4.70;99.90;;;3.68;100.00;96367.16;4906666;29;20809;-78
2023/03/06 09:10:57;;;;;;;18.00;11.37;;;4.80;99.90;;;3.74;100.00;96368.84;4928477;23;20447;-78
2023/03/06 09:13:23;;;;;;;15.55;10.95;;;4.80;99.90;;;3.84;100.00;96369.00;4918106;29;20451;-78
2023/03/06 09:15:51;;;;;;;15.85;11.43;;;4.80;99.90;;;3.71;100.00;96366.66;4918683;28;21028;-77
2023/03/06 09:18:16;;;;;;;15.77;11.30;;;4.90;99.90;;;3.77;100.00;96373.59;4927669;29;20427;-78
2023/03/06 09:20:42;;;;;;;16.70;11.27;;;4.90;99.90;;;3.69;100.00;96366.91;4919771;29;20424;-77
2023/03/06 09:23:09;;;;;;;16.33;11.37;;;4.80;99.90;;;3.53;100.00;96372.09;4913910;29;20472;-77
2023/03/06 09:25:34;;;;;;;16.83;10.98;;;4.60;99.90;;;3.35;100.00;96368.56;4914197;29;20409;-77
2023/03/06 09:28:00;;;;;;;16.33;11.13;;;4.50;99.90;;;3.26;100.00;96369.94;4913980;29;20981;-78
2023/03/06 09:30:26;;;;;;;17.73;11.07;;;4.40;99.90;;;3.17;100.00;96373.13;4911718;29;20462;-78
2023/03/06 09:32:53;;;;;;;17.13;11.07;;;4.30;99.90;;;3.06;100.00;96377.38;4894189;29;20454;-77
2023/03/06 09:35:19;;;;;;;17.40;11.55;;;4.20;99.90;;;3.16;100.00;96374.94;4897163;29;20421;-78
2023/03/06 09:37:45;;;;;;;17.95;11.55;;;4.30;99.90;;;3.23;100.00;96374.84;4900462;29;21041;-78
2023/03/06 09:40:20;;;;;;;17.65;11.70;;;4.30;99.90;;;3.15;100.00;96377.81;4898345;29;20464;-77
2023/03/06 09:42:46;;;;;;;16.58;10.90;;;4.30;99.90;;;3.31;100.00;96374.47;4894728;29;20415;-78
2023/03/06 09:45:13;;;;;;;16.30;11.02;;;4.40;99.90;;;3.45;100.00;96379.25;4895805;29;20496;-79
2023/03/06 09:47:55;;;;;;;18.10;11.25;;;4.50;99.90;;;3.61;100.00;96374.34;4915078;29;20412;-77
2023/03/06 09:50:29;;;;;;;16.80;10.73;;;4.70;99.90;;;3.67;100.00;96374.22;4913821;29;20465;-77
2023/03/06 09:53:14;;;;;;;18.35;10.55;;;4.80;99.90;;;3.71;100.00;96380.56;4913625;29;20425;-79
2023/03/06 09:55:42;;;;;;;15.75;11.05;;;4.70;99.90;;;3.73;100.00;96381.13;4913723;29;20402;-78
2023/03/06 09:58:16;;;;;;;18.17;11.20;;;4.80;99.90;;;3.84;100.00;96380.28;4912157;29;20488;-77
2023/03/06 10:00:54;;;;;;;15.90;11.07;;;4.90;99.90;;;3.95;100.00;96373.41;4903227;29;20425;-77
2023/03/06 10:03:28;;;;;;;17.25;11.50;;;5.00;99.90;;;3.90;100.00;96375.94;4912658;29;20419;-76
2023/03/06 10:06:01;;;;;;;15.52;10.07;;;5.10;99.90;;;4.05;100.00;96373.63;4913690;29;20910;-77
2023/03/06 10:08:36;;;;;;;14.88;10.55;;;5.20;99.90;;;3.99;100.00;96382.38;4913768;29;20421;-77
2023/03/06 10:11:08;;;;;;;17.58;10.98;;;5.10;99.90;;;4.03;100.00;96380.91;4913325;29;20816;-76
2023/03/06 10:13:41;;;;;;;16.67;10.57;;;5.10;99.90;;;4.23;100.00;96373.41;4913533;29;20811;-76